, AK

(GMT )
Selawik

Weather History for PASK - May, 2013

Change the Weather History Date:

Tuesday, May 7, 2013

  Actual Average Record
Temperature  
Mean Temperature 26 °F -  
Max Temperature 30 °F 33 °F 44 °F (2005)
Min Temperature 21 °F 20 °F 10 °F (1998)
Degree Days  
Heating Degree Days 40    
Moisture  
Dew Point 22 °F    
Average Humidity 86    
Maximum Humidity 93    
Minimum Humidity 74    
Precipitation  
Precipitation 0.00 in - - ()
Sea Level Pressure  
Sea Level Pressure 30.23 in    
Wind  
Wind Speed 6 mph (ESE)    
Max Wind Speed 10 mph    
Max Gust Speed -    
Visibility 8 miles    
Events      
Averages and records for this station are not official NWS values.
T = Trace of Precipitation, MM = Missing Value Source: NWS Daily Summary

Daily Weather History Graph

Daily Weather History Graph

Search for Another Location

Airport or City:

Trip Planner

Search our weather history database for the weather conditions in past years. The results will help you decide how hot, cold, wet, or windy it might be!

Date:

Astronomy

May. 07, 2013 Rise Set
Actual Time 5:24 AM AKDT 11:51 PM AKDT
Civil Twilight 3:24 AM AKDT 2:04 AM AKDT
Nautical Twilight Sun does not rise Sun does not rise
Astronomical Twilight Sun does not rise Sun does not rise
Moon 5:11 AM AKDT (5/7) 9:13 PM AKDT (5/7)
Length of Visible Light 22h 40m
Length of Day
18h 26m
Waning Crescent, 5% of the Moon is Illuminated
May 7
Waning Crescent
May 9
New
May 17
First Quarter
May 24
Full
May 31
Last Quarter

Hourly Weather History & Observations

Time (AKDT) Temp. Windchill Dew Point Humidity Pressure Visibility Wind Dir Wind Speed Gust Speed Precip Events Conditions
12:16 AM 21.2 °F 13.6 °F 17.6 °F 86% 30.23 in 10.0 mi ESE 5.8 mph - N/A   Overcast
12:36 AM 21.2 °F 12.6 °F 17.6 °F 86% 30.22 in 10.0 mi ESE 6.9 mph - N/A   Overcast
12:56 AM 21.2 °F 12.6 °F 17.6 °F 86% 30.23 in 10.0 mi ESE 6.9 mph - N/A   Overcast
1:16 AM 21.2 °F 12.6 °F 17.6 °F 86% 30.23 in 10.0 mi ESE 6.9 mph - N/A   Overcast
1:36 AM 21.2 °F 11.7 °F 17.6 °F 86% 30.23 in 10.0 mi ESE 8.1 mph - N/A   Overcast
1:56 AM 21.2 °F 12.6 °F 17.6 °F 86% 30.23 in 10.0 mi ESE 6.9 mph - N/A   Overcast
2:16 AM 23.0 °F 13.9 °F 19.4 °F 86% 30.22 in 10.0 mi SE 8.1 mph - N/A   Overcast
2:36 AM 21.2 °F 12.6 °F 17.6 °F 86% 30.22 in 10.0 mi SE 6.9 mph - N/A   Overcast
2:56 AM 21.2 °F 13.6 °F 17.6 °F 86% 30.22 in 10.0 mi SE 5.8 mph - N/A   Overcast
3:16 AM 21.2 °F 13.6 °F 17.6 °F 86% 30.22 in 9.0 mi SE 5.8 mph - N/A   Overcast
3:36 AM 21.2 °F 13.6 °F 19.4 °F 93% 30.21 in 8.0 mi ESE 5.8 mph - N/A   Overcast
3:56 AM 21.2 °F 13.6 °F 17.6 °F 86% 30.22 in 6.0 mi SE 5.8 mph - N/A   Overcast
4:16 AM 21.2 °F 13.6 °F 17.6 °F 86% 30.21 in 4.0 mi SE 5.8 mph - N/A   Overcast
4:36 AM 21.2 °F 13.6 °F 17.6 °F 86% 30.22 in 10.0 mi ESE 5.8 mph - N/A   Overcast
4:56 AM 21.2 °F 13.6 °F 19.4 °F 93% 30.21 in 10.0 mi ESE 5.8 mph - N/A   Overcast
5:16 AM 21.2 °F 12.6 °F 19.4 °F 93% 30.21 in 7.0 mi ESE 6.9 mph - N/A   Overcast
5:36 AM 21.2 °F 12.6 °F 19.4 °F 93% 30.20 in 4.0 mi ESE 6.9 mph - N/A   Overcast
5:56 AM 21.2 °F 13.6 °F 19.4 °F 93% 30.21 in 5.0 mi ESE 5.8 mph - N/A   Overcast
6:16 AM 21.2 °F 13.6 °F 19.4 °F 93% 30.21 in 1.5 mi ESE 5.8 mph - N/A   Overcast
6:36 AM 21.2 °F 12.6 °F 19.4 °F 93% 30.20 in 5.0 mi ESE 6.9 mph - N/A   Overcast
6:56 AM 21.2 °F 12.6 °F 19.4 °F 93% 30.20 in 10.0 mi ESE 6.9 mph - N/A   Overcast
7:16 AM 21.2 °F 13.6 °F 19.4 °F 93% 30.20 in 10.0 mi ESE 5.8 mph - N/A   Overcast
7:36 AM 21.2 °F 14.9 °F 19.4 °F 93% 30.21 in 4.0 mi ESE 4.6 mph - N/A   Overcast
7:56 AM 23.0 °F 17.0 °F 19.4 °F 86% 30.20 in 9.0 mi SE 4.6 mph - N/A   Overcast
8:16 AM 23.0 °F 17.0 °F 19.4 °F 86% 30.21 in 10.0 mi SSE 4.6 mph - N/A   Overcast
8:36 AM 23.0 °F 17.0 °F 19.4 °F 86% 30.21 in 9.0 mi SSE 4.6 mph - N/A   Overcast
8:56 AM 24.8 °F 20.5 °F 21.2 °F 86% 30.21 in 10.0 mi SSE 3.5 mph - N/A   Overcast
9:16 AM 24.8 °F 20.5 °F 21.2 °F 86% 30.21 in 10.0 mi SSE 3.5 mph - N/A   Overcast
9:36 AM 24.8 °F - 21.2 °F 86% 30.21 in 7.0 mi Calm Calm - N/A   Overcast
9:56 AM 24.8 °F 20.5 °F 21.2 °F 86% 30.21 in 10.0 mi NE 3.5 mph - N/A   Overcast
10:16 AM 24.8 °F 17.9 °F 21.2 °F 86% 30.22 in 10.0 mi ENE 5.8 mph - N/A   Overcast
10:36 AM 24.8 °F 17.9 °F 21.2 °F 86% 30.22 in 10.0 mi NE 5.8 mph - N/A   Overcast
10:56 AM 24.8 °F 17.9 °F 21.2 °F 86% 30.23 in 10.0 mi ENE 5.8 mph - N/A   Overcast
11:16 AM 24.8 °F 17.9 °F 21.2 °F 86% 30.22 in 10.0 mi ENE 5.8 mph - N/A   Overcast
11:36 AM 24.8 °F 19.1 °F 21.2 °F 86% 30.23 in 10.0 mi East 4.6 mph - N/A   Overcast
11:56 AM 26.6 °F 20.0 °F 23.0 °F 86% 30.23 in 10.0 mi East 5.8 mph - N/A   Overcast
12:16 PM 26.6 °F 20.0 °F 23.0 °F 86% 30.23 in 10.0 mi East 5.8 mph - N/A   Overcast
12:36 PM 26.6 °F 20.0 °F 23.0 °F 86% 30.23 in 10.0 mi East 5.8 mph - N/A   Overcast
12:56 PM 26.6 °F 20.0 °F 24.8 °F 93% 30.23 in 10.0 mi East 5.8 mph - N/A   Mostly Cloudy
1:16 PM 26.6 °F 20.0 °F 23.0 °F 86% 30.24 in 10.0 mi East 5.8 mph - N/A   Scattered Clouds
1:36 PM 28.4 °F 22.2 °F 23.0 °F 80% 30.24 in 10.0 mi East 5.8 mph - N/A   Partly Cloudy
1:56 PM 28.4 °F 22.2 °F 23.0 °F 80% 30.24 in 10.0 mi East 5.8 mph - N/A   Clear
2:16 PM 28.4 °F 22.2 °F 23.0 °F 80% 30.24 in 10.0 mi East 5.8 mph - N/A   Clear
2:36 PM 28.4 °F 22.2 °F 23.0 °F 80% 30.24 in 10.0 mi East 5.8 mph - N/A   Scattered Clouds
2:56 PM 28.4 °F 22.2 °F 21.2 °F 74% 30.23 in 10.0 mi East 5.8 mph - N/A   Overcast
3:16 PM 28.4 °F 22.2 °F 23.0 °F 80% 30.23 in 10.0 mi ENE 5.8 mph - N/A   Mostly Cloudy
3:36 PM 28.4 °F 21.2 °F 24.8 °F 86% 30.24 in 10.0 mi ENE 6.9 mph - N/A   Mostly Cloudy
3:56 PM 30.2 °F 23.4 °F 24.8 °F 80% 30.24 in 10.0 mi East 6.9 mph - N/A   Overcast
4:16 PM 30.2 °F 23.4 °F 23.0 °F 75% 30.24 in 10.0 mi East 6.9 mph - N/A   Overcast
4:36 PM 30.2 °F 24.3 °F 23.0 °F 75% 30.23 in 10.0 mi East 5.8 mph - N/A   Overcast
4:56 PM 30.2 °F 24.3 °F 23.0 °F 75% 30.24 in 10.0 mi East 5.8 mph - N/A   Overcast
5:16 PM 30.2 °F 24.3 °F 24.8 °F 80% 30.23 in 10.0 mi East 5.8 mph - N/A   Overcast
5:36 PM 30.2 °F 23.4 °F 24.8 °F 80% 30.23 in 10.0 mi East 6.9 mph - N/A   Overcast
5:56 PM 30.2 °F 24.3 °F 24.8 °F 80% 30.23 in 10.0 mi ESE 5.8 mph - N/A   Overcast
6:16 PM 30.2 °F 24.3 °F 24.8 °F 80% 30.23 in 10.0 mi ESE 5.8 mph - N/A   Overcast
6:36 PM 30.2 °F 25.4 °F 24.8 °F 80% 30.23 in 10.0 mi SE 4.6 mph - N/A   Overcast
6:56 PM 30.2 °F 24.3 °F 24.8 °F 80% 30.24 in 10.0 mi SSE 5.8 mph - N/A   Overcast
7:16 PM 30.2 °F 22.6 °F 24.8 °F 80% 30.24 in 10.0 mi SSE 8.1 mph - N/A   Overcast
7:36 PM 30.2 °F 22.6 °F 24.8 °F 80% 30.24 in 10.0 mi SSE 8.1 mph - N/A   Overcast
7:56 PM 30.2 °F 23.4 °F 26.6 °F 86% 30.24 in 10.0 mi SSE 6.9 mph - N/A   Overcast
8:16 PM 30.2 °F 22.6 °F 26.6 °F 86% 30.23 in 10.0 mi SSE 8.1 mph - N/A   Overcast
8:36 PM 30.2 °F 23.4 °F 26.6 °F 86% 30.24 in 10.0 mi SSE 6.9 mph - N/A   Overcast
8:56 PM 30.2 °F 22.6 °F 26.6 °F 86% 30.24 in 10.0 mi SSE 8.1 mph - N/A   Overcast
9:16 PM 30.2 °F 23.4 °F 26.6 °F 86% 30.23 in 10.0 mi South 6.9 mph - N/A   Overcast
9:36 PM 30.2 °F 23.4 °F 26.6 °F 86% 30.23 in 3.0 mi SSE 6.9 mph - N/A   Overcast
9:56 PM 30.2 °F 23.4 °F 28.4 °F 93% 30.24 in 2.0 mi South 6.9 mph - N/A   Overcast
10:16 PM 30.2 °F 23.4 °F 28.4 °F 93% 30.24 in 2.0 mi South 6.9 mph - N/A   Overcast
10:36 PM 30.2 °F 22.6 °F 28.4 °F 93% 30.24 in 3.0 mi SSW 8.1 mph - N/A   Overcast
10:56 PM 30.2 °F 22.6 °F 28.4 °F 93% 30.25 in 1.5 mi SW 8.1 mph - N/A   Overcast
11:16 PM 30.2 °F 21.3 °F 28.4 °F 93% 30.25 in 2.5 mi SW 10.4 mph - N/A   Overcast
11:36 PM 30.2 °F 22.6 °F 28.4 °F 93% 30.26 in 5.0 mi SW 8.1 mph - N/A   Overcast
11:56 PM 30.2 °F 21.3 °F 28.4 °F 93% 30.26 in 5.0 mi SW 10.4 mph - N/A   Overcast